Else — D5BH8 — position and weather

sailwx.info

Track history (hours):
 
Tides and Currents Weather Stations Pressure Air Temp Water Temp Dewpoint Dewpoint Depression Visibility Wind Speed Wind Dir Waves Ship Positions

Else

Last reported at 2018-Feb-01 03:00 UTC. Time now 2018-Feb-25 23:55 UTC.
Position N 49°52' W 005°10'.
Warning: this ship's position is 24 days out of date.

Length 292 m; draft 11.3 m.

Type: Cargo ship. MMSI: 636092384.

Date/timePositionNaut miles runAvg speedWind from/ knotsBaromVisibWave heightAir tempDewpointWater temp
2018-Feb-01 03:00N 49°52' W 005°10'611.6
2018-Feb-01 02:30N 49°53' W 005°02'1613.2
2018-Feb-01 01:20N 49°57' W 004°38'413.8
2018-Feb-01 01:00N 49°58' W 004°31'714.0
2018-Feb-01 00:31N 49°60' W 004°21'714.3
2018-Feb-01 00:00N 50°02' W 004°10'1514.8
2018-Jan-31 23:00N 50°05' W 003°48'714.5
2018-Jan-31 22:30N 50°07' W 003°37'2013.3
2018-Jan-31 21:00N 50°13' W 003°07'611.3
2018-Jan-31 20:30N 50°16' W 002°59'510.9
2018-Jan-31 20:00N 50°18' W 002°51'510.7
2018-Jan-31 19:30N 50°20' W 002°44'510.5
2018-Jan-31 19:00N 50°23' W 002°37'510.5
2018-Jan-31 18:30N 50°25' W 002°29'510.2
2018-Jan-31 18:00N 50°28' W 002°22'5 9.2
2018-Jan-31 17:30N 50°32' W 002°20'4 7.4
2018-Jan-31 16:58N 50°36' W 002°24'0 0.2
2018-Jan-31 16:22N 50°36' W 002°24'0 0.1
2018-Jan-31 15:55N 50°35' W 002°24'0 0.1
2018-Jan-31 15:25N 50°35' W 002°24'0 0.1
2018-Jan-31 14:58N 50°35' W 002°24'0 0.0
2018-Jan-31 14:28N 50°35' W 002°24'0 0.1
2018-Jan-31 12:58N 50°35' W 002°24'0 0.1
2018-Jan-31 12:25N 50°35' W 002°24'0 0.1
2018-Jan-31 11:58N 50°35' W 002°24'0 0.1
2018-Jan-31 11:28N 50°35' W 002°24'0 0.3
2018-Jan-31 10:58N 50°35' W 002°24'0 0.2
2018-Jan-31 10:28N 50°36' W 002°24'0 0.1
2018-Jan-31 09:58N 50°36' W 002°24'0 0.0
2018-Jan-31 09:28N 50°36' W 002°24'0 0.0
2018-Jan-31 08:58N 50°36' W 002°24'0 0.0
2018-Jan-31 08:25N 50°36' W 002°24'0 0.1
2018-Jan-31 07:58N 50°36' W 002°24'0 0.3
2018-Jan-31 07:30N 50°36' W 002°23'1 2.5
2018-Jan-31 07:00N 50°35' W 002°22'2 3.9
2018-Jan-31 06:30N 50°35' W 002°19'4 7.7
2018-Jan-31 06:00N 50°33' W 002°13'4 4.1
2018-Jan-31 05:06N 50°30' W 002°10'1 6.1
2018-Jan-31 04:56N 50°29' W 002°09'3 7.3
2018-Jan-31 04:28N 50°26' W 002°05'1 2.9
2018-Jan-31 04:00N 50°26' W 002°03'2 3.9
2018-Jan-31 03:24N 50°26' W 001°60'2 4.5
2018-Jan-31 03:00N 50°26' W 001°57'2 4.8
2018-Jan-31 02:30N 50°26' W 001°53'2 4.7
2018-Jan-31 02:00N 50°26' W 001°49'3 5.5
2018-Jan-31 01:30N 50°26' W 001°45'3 5.6
2018-Jan-31 00:53N 50°27' W 001°40'4 4.4
2018-Jan-30 23:59N 50°27' W 001°34'2 3.6
2018-Jan-30 23:27N 50°27' W 001°31'510.7
2018-Jan-30 22:57N 50°26' W 001°22'1111.6
2018-Jan-30 22:01N 50°26' W 001°05'610.8
2018-Jan-30 21:30N 50°26' W 000°57'21 9.6
2018-Jan-30 19:22N 50°29' W 000°25'410.6
2018-Jan-30 19:00N 50°29' W 000°19'611.1
2018-Jan-30 18:30N 50°30' W 000°10'611.7
2018-Jan-30 18:00N 50°32' W 000°01'612.4
2018-Jan-30 17:30N 50°33' E 000°08'713.2
2018-Jan-30 17:00N 50°35' E 000°18'713.9
2018-Jan-30 16:30N 50°37' E 000°29'714.1
2018-Jan-30 16:00N 50°40' E 000°39'714.5
2018-Jan-30 15:30N 50°44' E 000°48'714.3
2018-Jan-30 15:00N 50°48' E 000°58'813.9
2018-Jan-30 14:26N 50°53' E 001°07'1212.8
2018-Jan-30 13:29N 51°01' E 001°22'612.3
2018-Jan-30 13:00N 51°04' E 001°30'611.3
2018-Jan-30 12:30N 51°07' E 001°38'612.4
2018-Jan-30 12:00N 51°04' E 001°46'5 9.3
2018-Jan-30 11:30N 51°03' E 001°54'1211.8
2018-Jan-30 10:30N 51°04' E 002°12'5 5.0
2018-Jan-30 09:29N 51°03' E 002°20'0 0.1
2018-Jan-30 09:00N 51°03' E 002°20'0 0.8
2018-Jan-30 08:30N 51°03' E 002°20'0 0.2
2018-Jan-30 08:00N 51°03' E 002°20'0 0.0
2018-Jan-30 07:30N 51°03' E 002°20'0 0.0
2018-Jan-30 06:54N 51°03' E 002°20'0 0.0
2018-Jan-30 06:30N 51°03' E 002°20'0 0.0
2018-Jan-30 06:00N 51°03' E 002°20'0 0.0
2018-Jan-30 05:30N 51°03' E 002°20'0 0.0
2018-Jan-30 05:00N 51°03' E 002°20'0 0.0
2018-Jan-30 04:30N 51°03' E 002°20'0 0.0
2018-Jan-30 04:00N 51°03' E 002°20'0 0.0
2018-Jan-30 03:27N 51°03' E 002°20'0 0.0
2018-Jan-30 03:00N 51°03' E 002°20'0 0.0
2018-Jan-30 02:30N 51°03' E 002°20'0 0.0
2018-Jan-30 02:00N 51°03' E 002°20'0 0.0
2018-Jan-30 01:27N 51°03' E 002°20'0 0.0
2018-Jan-30 01:00N 51°03' E 002°20'0 0.0
2018-Jan-30 00:27N 51°03' E 002°20'0 0.0
2018-Jan-30 00:00N 51°03' E 002°20'0 0.0
2018-Jan-29 23:30N 51°03' E 002°20'0 0.0
2018-Jan-29 23:00N 51°03' E 002°20'0 0.0
2018-Jan-29 22:18N 51°03' E 002°20'0 0.0
2018-Jan-29 22:00N 51°03' E 002°20'0 0.0
2018-Jan-29 21:30N 51°03' E 002°20'0 0.0
2018-Jan-29 20:57N 51°03' E 002°20'0 0.0
2018-Jan-29 20:30N 51°03' E 002°20'0 0.0
2018-Jan-29 20:00N 51°03' E 002°20'0 0.0
2018-Jan-29 19:30N 51°03' E 002°20'0 0.0
2018-Jan-29 19:00N 51°03' E 002°20'0 0.0
2018-Jan-29 18:30N 51°03' E 002°20'0 0.0
2018-Jan-29 18:00N 51°03' E 002°20'0 0.0
2018-Jan-29 17:30N 51°03' E 002°20'0 0.0
2018-Jan-29 17:00N 51°03' E 002°20'0 0.0
2018-Jan-29 16:30N 51°03' E 002°20'0 0.0
2018-Jan-29 15:57N 51°03' E 002°20'0 0.0
2018-Jan-29 15:24N 51°03' E 002°20'0 0.0
2018-Jan-29 15:00N 51°03' E 002°20'0 0.0
2018-Jan-29 14:30N 51°03' E 002°20'0 0.0
2018-Jan-29 14:00N 51°03' E 002°20'0 0.0
2018-Jan-29 13:30N 51°03' E 002°20'0 0.0
2018-Jan-29 12:39N 51°03' E 002°20'0 0.0
2018-Jan-29 12:21N 51°03' E 002°20'0 0.0
2018-Jan-29 12:00N 51°03' E 002°20'0 0.0
2018-Jan-29 11:27N 51°03' E 002°20'0 0.0
2018-Jan-29 11:00N 51°03' E 002°20'0 0.0
2018-Jan-29 10:21N 51°03' E 002°20'0 0.0
2018-Jan-29 10:00N 51°03' E 002°20'0 0.0
2018-Jan-29 09:27N 51°03' E 002°20'0 0.0
2018-Jan-29 08:57N 51°03' E 002°20'0 0.0
2018-Jan-29 08:27N 51°03' E 002°20'0 0.0
2018-Jan-29 08:00N 51°03' E 002°20'0 0.0
2018-Jan-29 07:30N 51°03' E 002°20'0 0.0
2018-Jan-29 06:51N 51°03' E 002°20'0 0.0
2018-Jan-29 06:26N 51°03' E 002°20'0 0.0
2018-Jan-29 06:00N 51°03' E 002°20'0 0.0
2018-Jan-29 05:30N 51°03' E 002°20'0 0.0
2018-Jan-29 04:56N 51°03' E 002°20'0 0.0
2018-Jan-29 04:30N 51°03' E 002°20'0 0.0
2018-Jan-29 04:00N 51°03' E 002°20'0 0.0
2018-Jan-29 03:30N 51°03' E 002°20'0 0.0
2018-Jan-29 03:00N 51°03' E 002°20'0 0.0
2018-Jan-29 02:30N 51°03' E 002°20'0 0.0
2018-Jan-29 01:59N 51°03' E 002°20'0 0.0
2018-Jan-29 01:29N 51°03' E 002°20'0 0.0
2018-Jan-29 01:00N 51°03' E 002°20'0 0.0
2018-Jan-29 00:30N 51°03' E 002°20'0 0.0
2018-Jan-29 00:00N 51°03' E 002°20'0 0.0
2018-Jan-28 23:30N 51°03' E 002°20'0 0.0
2018-Jan-28 23:00N 51°03' E 002°20'0 0.0
2018-Jan-28 22:11N 51°03' E 002°20'0 0.0
2018-Jan-28 21:57N 51°03' E 002°20'0 0.0
2018-Jan-28 21:03N 51°03' E 002°20'0 0.0
2018-Jan-28 21:00N 51°03' E 002°20'0 0.0
2018-Jan-28 20:30N 51°03' E 002°20'0 0.0
2018-Jan-28 20:00N 51°03' E 002°20'0 0.0
2018-Jan-28 19:29N 51°03' E 002°20'0 0.0
2018-Jan-28 18:57N 51°03' E 002°20'0 0.0
2018-Jan-28 18:27N 51°03' E 002°20'0 0.0
2018-Jan-28 17:57N 51°03' E 002°20'0 0.0
2018-Jan-28 17:26N 51°03' E 002°20'0 0.0
2018-Jan-28 16:59N 51°03' E 002°20'0 0.0
2018-Jan-28 16:26N 51°03' E 002°20'0 0.0
2018-Jan-28 15:44N 51°03' E 002°20'0 0.0
2018-Jan-28 15:30N 51°03' E 002°20'0 0.0
2018-Jan-28 15:00N 51°03' E 002°20'0 0.0
2018-Jan-28 14:30N 51°03' E 002°20'0 0.0
2018-Jan-28 13:18N 51°03' E 002°20'0 0.0
2018-Jan-28 12:50N 51°03' E 002°20'0 0.0
2018-Jan-28 12:30N 51°03' E 002°20'0 0.0
2018-Jan-28 11:59N 51°03' E 002°20'0 0.0
2018-Jan-28 11:30N 51°03' E 002°20'0 0.0
2018-Jan-28 10:56N 51°03' E 002°20'0 0.0
2018-Jan-28 10:23N 51°03' E 002°20'0 0.0
2018-Jan-28 09:59N 51°03' E 002°20'0 0.0
2018-Jan-28 09:23N 51°03' E 002°20'0 0.0
2018-Jan-28 09:00N 51°03' E 002°20'0 0.0
2018-Jan-28 08:27N 51°03' E 002°20'0 0.0
2018-Jan-28 07:56N 51°03' E 002°20'0 0.0
2018-Jan-28 07:27N 51°03' E 002°20'0 0.0
2018-Jan-28 06:56N 51°03' E 002°20'0 0.0
2018-Jan-28 06:29N 51°03' E 002°20'0 0.0
2018-Jan-28 05:17N 51°03' E 002°20'0 0.0
2018-Jan-28 04:56N 51°03' E 002°20'0 0.0
2018-Jan-28 04:29N 51°03' E 002°20'0 0.0
2018-Jan-28 03:59N 51°03' E 002°20'0 0.0
2018-Jan-28 03:30N 51°03' E 002°20'0 0.0
2018-Jan-28 02:59N 51°03' E 002°20'0 0.0
2018-Jan-28 02:21N 51°03' E 002°20'0 0.0
2018-Jan-28 01:59N 51°03' E 002°20'0 0.0
2018-Jan-28 01:29N 51°03' E 002°20'0 0.0
2018-Jan-28 00:59N 51°03' E 002°20'0 0.0
2018-Jan-28 00:26N 51°03' E 002°20'0 0.0
2018-Jan-27 23:56N 51°03' E 002°20'0 0.0
2018-Jan-27 23:26N 51°03' E 002°20'0 0.0
2018-Jan-27 22:56N 51°03' E 002°20'0 0.0
2018-Jan-27 22:26N 51°03' E 002°20'0 0.0
2018-Jan-27 22:00N 51°03' E 002°20'0 0.0
2018-Jan-27 21:27N 51°03' E 002°20'0 0.0
2018-Jan-27 20:56N 51°03' E 002°20'0 0.0
2018-Jan-27 20:26N 51°03' E 002°20'0 0.0
2018-Jan-27 20:00N 51°03' E 002°20'0 0.0
2018-Jan-27 19:20N 51°03' E 002°20'0 0.0
2018-Jan-27 18:59N 51°03' E 002°20'0 0.0
2018-Jan-27 18:11N 51°03' E 002°20'0 0.0
2018-Jan-27 17:59N 51°03' E 002°20'0 0.0
2018-Jan-27 17:29N 51°03' E 002°20'0 0.0
2018-Jan-27 16:56N 51°03' E 002°20'0 0.0
2018-Jan-27 16:29N 51°03' E 002°20'0 0.0
2018-Jan-27 15:57N 51°03' E 002°20'0 0.0
2018-Jan-27 15:30N 51°03' E 002°20'0 0.0
2018-Jan-27 14:59N 51°03' E 002°20'0 0.0
2018-Jan-27 14:29N 51°03' E 002°20'0 0.0
2018-Jan-27 13:59N 51°03' E 002°20'0 0.0
2018-Jan-27 13:29N 51°03' E 002°20'0 0.0
2018-Jan-27 12:59N 51°03' E 002°20'0 0.0
2018-Jan-27 12:29N 51°03' E 002°20'0 0.0
2018-Jan-27 11:56N 51°03' E 002°20'0 0.0
2018-Jan-27 11:29N 51°03' E 002°20'0 0.0
2018-Jan-27 10:57N 51°03' E 002°20'0 0.1
2018-Jan-27 10:30N 51°03' E 002°20'1 1.2
2018-Jan-27 10:00N 51°03' E 002°21'0 0.0
2018-Jan-27 09:30N 51°03' E 002°21'0 0.5
2018-Jan-27 09:01N 51°03' E 002°21'2 3.7
2018-Jan-27 08:29N 51°04' E 002°18'4 9.1
2018-Jan-27 07:59N 51°03' E 002°11'2 4.9
2018-Jan-27 07:30N 51°01' E 002°11'0 0.6
2018-Jan-27 06:51N 51°01' E 002°11'0 0.0
2018-Jan-27 06:24N 51°01' E 002°11'0 0.0
2018-Jan-27 05:57N 51°01' E 002°11'0 0.0
2018-Jan-27 03:36N 51°01' E 002°11'0 0.0
2018-Jan-27 03:30N 51°01' E 002°11'0 0.0
2018-Jan-27 03:00N 51°01' E 002°11'0 0.0
2018-Jan-27 02:24N 51°01' E 002°11'0 0.0
2018-Jan-27 01:30N 51°01' E 002°11'0 0.0
2018-Jan-27 00:57N 51°01' E 002°11'0 0.0
2018-Jan-27 00:30N 51°01' E 002°11'0 0.0
2018-Jan-26 23:51N 51°01' E 002°11'0 0.0
2018-Jan-26 23:27N 51°01' E 002°11'0 0.0
2018-Jan-26 23:00N 51°01' E 002°11'0 0.0
2018-Jan-26 22:21N 51°01' E 002°11'0 0.0
2018-Jan-26 21:39N 51°01' E 002°11'0 0.0
2018-Jan-26 21:27N 51°01' E 002°11'0 0.0
2018-Jan-26 21:00N 51°01' E 002°11'0 0.0
2018-Jan-26 19:45N 51°01' E 002°11'0 0.0
2018-Jan-26 19:27N 51°01' E 002°11'0 0.0
2018-Jan-26 18:36N 51°01' E 002°11'0 0.0
2018-Jan-26 18:30N 51°01' E 002°11'0 0.0
2018-Jan-26 18:00N 51°01' E 002°11'0 0.0
2018-Jan-26 17:18N 51°01' E 002°11'0 0.0
2018-Jan-26 17:00N 51°01' E 002°11'0 0.0
2018-Jan-26 16:30N 51°01' E 002°11'0 0.0
2018-Jan-26 16:00N 51°01' E 002°11'0 0.0
2018-Jan-26 15:27N 51°01' E 002°11'0 0.0
2018-Jan-26 15:00N 51°01' E 002°11'0 0.0
2018-Jan-26 14:21N 51°01' E 002°11'0 0.0
2018-Jan-26 14:00N 51°01' E 002°11'0 0.0
2018-Jan-26 13:30N 51°01' E 002°11'0 0.0
2018-Jan-26 12:57N 51°01' E 002°11'0 0.0
2018-Jan-26 12:24N 51°01' E 002°11'0 0.0
2018-Jan-26 12:00N 51°01' E 002°11'0 0.0
2018-Jan-26 11:30N 51°01' E 002°11'0 0.0
2018-Jan-26 10:57N 51°01' E 002°11'0 0.0
2018-Jan-26 10:30N 51°01' E 002°11'0 0.0
2018-Jan-26 09:51N 51°01' E 002°11'0 0.0
2018-Jan-26 09:12N 51°01' E 002°11'0 0.0
2018-Jan-26 09:00N 51°01' E 002°11'0 0.0
2018-Jan-26 08:30N 51°01' E 002°11'0 0.0
2018-Jan-26 08:00N 51°01' E 002°11'0 0.0
2018-Jan-26 07:30N 51°01' E 002°11'0 0.0
2018-Jan-26 06:51N 51°01' E 002°11'0 0.0
2018-Jan-26 06:30N 51°01' E 002°11'0 0.0
2018-Jan-26 05:33N 51°01' E 002°11'0 0.0
2018-Jan-26 05:30N 51°01' E 002°11'0 0.0
2018-Jan-26 04:51N 51°01' E 002°11'0 0.0
2018-Jan-26 04:18N 51°01' E 002°11'0 0.0
2018-Jan-26 04:00N 51°01' E 002°11'0 0.0
2018-Jan-26 03:30N 51°01' E 002°11'0 0.0
2018-Jan-26 02:48N 51°01' E 002°11'0 0.0
2018-Jan-26 02:24N 51°01' E 002°11'0 0.0
2018-Jan-26 02:00N 51°01' E 002°11'0 0.0
2018-Jan-26 01:27N 51°01' E 002°11'0 0.0
2018-Jan-26 00:57N 51°01' E 002°11'0 0.0
2018-Jan-26 00:27N 51°01' E 002°11'0 0.0
2018-Jan-25 23:51N 51°01' E 002°11'0 0.0
2018-Jan-25 23:30N 51°01' E 002°11'0 0.0
2018-Jan-25 23:00N 51°01' E 002°11'0 0.0
2018-Jan-25 22:09N 51°01' E 002°11'0 0.0
2018-Jan-25 21:45N 51°01' E 002°11'0 0.0
2018-Jan-25 21:21N 51°01' E 002°11'0 0.0
2018-Jan-25 21:00N 51°01' E 002°11'0 0.0
2018-Jan-25 20:11N 51°01' E 002°10'0 0.2
2018-Jan-25 19:59N 51°01' E 002°11'1 2.0
2018-Jan-25 19:29N 51°02' E 002°10'2 5.1
2018-Jan-25 19:00N 51°03' E 002°07'4 7.7
2018-Jan-25 18:30N 51°03' E 002°01'611.8
2018-Jan-25 18:00N 51°03' E 001°52'2 3.7
2018-Jan-25 17:30N 51°03' E 001°49'0 0.9
2018-Jan-25 17:01N 51°03' E 001°48'0 0.1
2018-Jan-25 16:30N 51°03' E 001°48'0 0.1
2018-Jan-25 16:00N 51°03' E 001°48'0 0.1
2018-Jan-25 15:30N 51°03' E 001°48'0 0.1
2018-Jan-25 14:57N 51°03' E 001°48'0 0.6
2018-Jan-25 14:30N 51°03' E 001°48'0 0.2
2018-Jan-25 14:00N 51°03' E 001°48'0 0.0
2018-Jan-25 13:30N 51°03' E 001°48'0 0.0
2018-Jan-25 13:00N 51°03' E 001°48'0 0.0
2018-Jan-25 12:30N 51°03' E 001°48'0 0.1
2018-Jan-25 12:00N 51°03' E 001°48'0 1.0
2018-Jan-25 11:31N 51°03' E 001°47'2 3.7
2018-Jan-25 11:00N 51°02' E 001°44'3 5.1
2018-Jan-25 10:30N 51°01' E 001°40'510.5
2018-Jan-25 10:00N 50°57' E 001°35'611.6
2018-Jan-25 09:30N 50°53' E 001°29'5411.3
2018-Jan-25 04:43N 50°22' E 000°19'312.4
2018-Jan-25 04:30N 50°21' E 000°15'612.7
2018-Jan-25 04:00N 50°20' E 000°05'713.0
2018-Jan-25 03:30N 50°19' W 000°05'713.4
2018-Jan-25 03:00N 50°17' W 000°15'10013.7
2018-Jan-24 19:42N 49°52' W 002°46'211.5
2018-Jan-24 19:30N 49°52' W 002°49'1211.2
2018-Jan-24 18:25N 49°52' W 003°08'511.6
2018-Jan-24 17:58N 49°53' W 003°16'511.6
2018-Jan-24 17:30N 49°54' W 003°24'611.6
2018-Jan-24 17:00N 49°55' W 003°33'611.6
2018-Jan-24 16:30N 49°55' W 003°42'611.6
2018-Jan-24 16:00N 49°57' W 003°51'811.8
2018-Jan-24 15:18N 49°58' W 004°03'511.9
2018-Jan-24 14:55N 49°59' W 004°10'512.0
2018-Jan-24 14:30N 49°60' W 004°18'612.0
2018-Jan-24 14:01N 50°01' W 004°27'612.0
2018-Jan-24 13:30N 50°03' W 004°36'611.9
2018-Jan-24 13:01N 50°03' W 004°45'611.7
2018-Jan-24 12:29N 50°04' W 004°54'4 9.1
2018-Jan-24 12:01N 50°05' W 005°01'1 0.8
2018-Jan-24 11:19N 50°06' W 005°01'0 0.1
2018-Jan-24 10:58N 50°06' W 005°01'0 0.0
2018-Jan-24 10:28N 50°06' W 005°01'0 0.0
2018-Jan-24 09:58N 50°06' W 005°01'0 0.0
2018-Jan-24 09:19N 50°06' W 005°01'0 0.0
2018-Jan-24 08:58N 50°06' W 005°01'0 0.0
2018-Jan-24 08:28N 50°06' W 005°01'0 0.1
2018-Jan-24 07:58N 50°06' W 005°01'0 0.0
2018-Jan-24 07:16N 50°06' W 005°01'0 0.0
2018-Jan-24 06:58N 50°06' W 005°01'0 0.0
2018-Jan-24 06:28N 50°06' W 005°01'0 0.0
2018-Jan-24 05:52N 50°06' W 005°01'0 0.0
2018-Jan-24 05:25N 50°06' W 005°01'0 0.0
2018-Jan-24 04:46N 50°06' W 005°01'0 0.0
2018-Jan-24 04:28N 50°06' W 005°01'0 0.0
2018-Jan-24 03:58N 50°06' W 005°01'0 0.0
2018-Jan-24 03:28N 50°06' W 005°01'0 0.0
2018-Jan-24 02:58N 50°06' W 005°01'0 0.0
2018-Jan-24 02:22N 50°06' W 005°01'0 0.0
2018-Jan-24 01:58N 50°06' W 005°01'0 0.0
2018-Jan-24 01:28N 50°06' W 005°01'0 0.0
2018-Jan-24 00:55N 50°06' W 005°01'0 0.0
2018-Jan-24 00:28N 50°06' W 005°01'0 0.0
2018-Jan-23 23:58N 50°06' W 005°01'0 0.0
2018-Jan-23 23:28N 50°06' W 005°01'0 0.0
2018-Jan-23 22:46N 50°06' W 005°01'0 0.0
2018-Jan-23 22:28N 50°06' W 005°01'0 0.0
2018-Jan-23 21:58N 50°06' W 005°01'0 0.0
2018-Jan-23 21:28N 50°06' W 005°01'0 0.0
2018-Jan-23 20:58N 50°06' W 005°01'0 0.0
2018-Jan-23 20:28N 50°06' W 005°01'0 0.0
2018-Jan-23 19:58N 50°06' W 005°01'0 0.0
2018-Jan-23 19:28N 50°06' W 005°01'0 0.0
2018-Jan-23 18:58N 50°06' W 005°01'0 0.0
2018-Jan-23 18:28N 50°06' W 005°01'0 0.0
2018-Jan-23 17:58N 50°06' W 005°01'0 0.0
2018-Jan-23 17:25N 50°06' W 005°01'0 0.0
2018-Jan-23 08:46N 50°06' W 005°01'0 0.0
2018-Jan-23 08:28N 50°06' W 005°01'0 0.0
2018-Jan-23 07:58N 50°06' W 005°01'0 0.0
2018-Jan-23 07:25N 50°06' W 005°01'0 0.0
2018-Jan-23 06:52N 50°06' W 005°01'0 0.0
2018-Jan-23 06:25N 50°06' W 005°01'0 0.0
2018-Jan-23 05:58N 50°06' W 005°01'0 0.0
2018-Jan-23 05:22N 50°06' W 005°01'0 0.0
2018-Jan-23 04:58N 50°06' W 005°01'0 0.3
2018-Jan-23 04:28N 50°06' W 005°01'0 0.5
2018-Jan-23 04:00N 50°06' W 005°01'1 1.8
2018-Jan-23 03:30N 50°05' W 005°01'2 4.4
2018-Jan-23 03:00N 50°03' W 005°01'4 7.8
2018-Jan-23 02:30N 49°59' W 005°02'3111.9
2018-Jan-22 23:53N 49°32' W 005°26'  
Track history (hours):
 
Tides and Currents Weather Stations Pressure Air Temp Water Temp Dewpoint Dewpoint Depression Visibility Wind Speed Wind Dir Waves Ship Positions

Else

Last reported at 2018-Feb-01 03:00 UTC. Time now 2018-Feb-25 23:55 UTC.
Position N 49°52' W 005°10'.
Warning: this ship's position is 24 days out of date.

Length 292 m; draft 11.3 m.

Type: Cargo ship. MMSI: 636092384.

Date/timePositionNaut miles runAvg speedWind from/ knotsBaromVisibWave heightAir tempDewpointWater temp
2018-Feb-01 03:00N 49°52' W 005°10'611.6
2018-Feb-01 02:30N 49°53' W 005°02'1613.2
2018-Feb-01 01:20N 49°57' W 004°38'413.8
2018-Feb-01 01:00N 49°58' W 004°31'714.0
2018-Feb-01 00:31N 49°60' W 004°21'714.3
2018-Feb-01 00:00N 50°02' W 004°10'1514.8
2018-Jan-31 23:00N 50°05' W 003°48'714.5
2018-Jan-31 22:30N 50°07' W 003°37'2013.3
2018-Jan-31 21:00N 50°13' W 003°07'611.3
2018-Jan-31 20:30N 50°16' W 002°59'510.9
2018-Jan-31 20:00N 50°18' W 002°51'510.7
2018-Jan-31 19:30N 50°20' W 002°44'510.5
2018-Jan-31 19:00N 50°23' W 002°37'510.5
2018-Jan-31 18:30N 50°25' W 002°29'510.2
2018-Jan-31 18:00N 50°28' W 002°22'5 9.2
2018-Jan-31 17:30N 50°32' W 002°20'4 7.4
2018-Jan-31 16:58N 50°36' W 002°24'0 0.2
2018-Jan-31 16:22N 50°36' W 002°24'0 0.1
2018-Jan-31 15:55N 50°35' W 002°24'0 0.1
2018-Jan-31 15:25N 50°35' W 002°24'0 0.1
2018-Jan-31 14:58N 50°35' W 002°24'0 0.0
2018-Jan-31 14:28N 50°35' W 002°24'0 0.1
2018-Jan-31 12:58N 50°35' W 002°24'0 0.1
2018-Jan-31 12:25N 50°35' W 002°24'0 0.1
2018-Jan-31 11:58N 50°35' W 002°24'0 0.1
2018-Jan-31 11:28N 50°35' W 002°24'0 0.3
2018-Jan-31 10:58N 50°35' W 002°24'0 0.2
2018-Jan-31 10:28N 50°36' W 002°24'0 0.1
2018-Jan-31 09:58N 50°36' W 002°24'0 0.0
2018-Jan-31 09:28N 50°36' W 002°24'0 0.0
2018-Jan-31 08:58N 50°36' W 002°24'0 0.0
2018-Jan-31 08:25N 50°36' W 002°24'0 0.1
2018-Jan-31 07:58N 50°36' W 002°24'0 0.3
2018-Jan-31 07:30N 50°36' W 002°23'1 2.5
2018-Jan-31 07:00N 50°35' W 002°22'2 3.9
2018-Jan-31 06:30N 50°35' W 002°19'4 7.7
2018-Jan-31 06:00N 50°33' W 002°13'4 4.1
2018-Jan-31 05:06N 50°30' W 002°10'1 6.1
2018-Jan-31 04:56N 50°29' W 002°09'3 7.3
2018-Jan-31 04:28N 50°26' W 002°05'1 2.9
2018-Jan-31 04:00N 50°26' W 002°03'2 3.9
2018-Jan-31 03:24N 50°26' W 001°60'2 4.5
2018-Jan-31 03:00N 50°26' W 001°57'2 4.8
2018-Jan-31 02:30N 50°26' W 001°53'2 4.7
2018-Jan-31 02:00N 50°26' W 001°49'3 5.5
2018-Jan-31 01:30N 50°26' W 001°45'3 5.6
2018-Jan-31 00:53N 50°27' W 001°40'4 4.4
2018-Jan-30 23:59N 50°27' W 001°34'2 3.6
2018-Jan-30 23:27N 50°27' W 001°31'510.7
2018-Jan-30 22:57N 50°26' W 001°22'1111.6
2018-Jan-30 22:01N 50°26' W 001°05'610.8
2018-Jan-30 21:30N 50°26' W 000°57'21 9.6
2018-Jan-30 19:22N 50°29' W 000°25'410.6
2018-Jan-30 19:00N 50°29' W 000°19'611.1
2018-Jan-30 18:30N 50°30' W 000°10'611.7
2018-Jan-30 18:00N 50°32' W 000°01'612.4
2018-Jan-30 17:30N 50°33' E 000°08'713.2
2018-Jan-30 17:00N 50°35' E 000°18'713.9
2018-Jan-30 16:30N 50°37' E 000°29'714.1
2018-Jan-30 16:00N 50°40' E 000°39'714.5
2018-Jan-30 15:30N 50°44' E 000°48'714.3
2018-Jan-30 15:00N 50°48' E 000°58'813.9
2018-Jan-30 14:26N 50°53' E 001°07'1212.8
2018-Jan-30 13:29N 51°01' E 001°22'612.3
2018-Jan-30 13:00N 51°04' E 001°30'611.3
2018-Jan-30 12:30N 51°07' E 001°38'612.4
2018-Jan-30 12:00N 51°04' E 001°46'5 9.3
2018-Jan-30 11:30N 51°03' E 001°54'1211.8
2018-Jan-30 10:30N 51°04' E 002°12'5 5.0
2018-Jan-30 09:29N 51°03' E 002°20'0 0.1
2018-Jan-30 09:00N 51°03' E 002°20'0 0.8
2018-Jan-30 08:30N 51°03' E 002°20'0 0.2
2018-Jan-30 08:00N 51°03' E 002°20'0 0.0
2018-Jan-30 07:30N 51°03' E 002°20'0 0.0
2018-Jan-30 06:54N 51°03' E 002°20'0 0.0
2018-Jan-30 06:30N 51°03' E 002°20'0 0.0
2018-Jan-30 06:00N 51°03' E 002°20'0 0.0
2018-Jan-30 05:30N 51°03' E 002°20'0 0.0
2018-Jan-30 05:00N 51°03' E 002°20'0 0.0
2018-Jan-30 04:30N 51°03' E 002°20'0 0.0
2018-Jan-30 04:00N 51°03' E 002°20'0 0.0
2018-Jan-30 03:27N 51°03' E 002°20'0 0.0
2018-Jan-30 03:00N 51°03' E 002°20'0 0.0
2018-Jan-30 02:30N 51°03' E 002°20'0 0.0
2018-Jan-30 02:00N 51°03' E 002°20'0 0.0
2018-Jan-30 01:27N 51°03' E 002°20'0 0.0
2018-Jan-30 01:00N 51°03' E 002°20'0 0.0
2018-Jan-30 00:27N 51°03' E 002°20'0 0.0
2018-Jan-30 00:00N 51°03' E 002°20'0 0.0
2018-Jan-29 23:30N 51°03' E 002°20'0 0.0
2018-Jan-29 23:00N 51°03' E 002°20'0 0.0
2018-Jan-29 22:18N 51°03' E 002°20'0 0.0
2018-Jan-29 22:00N 51°03' E 002°20'0 0.0
2018-Jan-29 21:30N 51°03' E 002°20'0 0.0
2018-Jan-29 20:57N 51°03' E 002°20'0 0.0
2018-Jan-29 20:30N 51°03' E 002°20'0 0.0
2018-Jan-29 20:00N 51°03' E 002°20'0 0.0
2018-Jan-29 19:30N 51°03' E 002°20'0 0.0
2018-Jan-29 19:00N 51°03' E 002°20'0 0.0
2018-Jan-29 18:30N 51°03' E 002°20'0 0.0
2018-Jan-29 18:00N 51°03' E 002°20'0 0.0
2018-Jan-29 17:30N 51°03' E 002°20'0 0.0
2018-Jan-29 17:00N 51°03' E 002°20'0 0.0
2018-Jan-29 16:30N 51°03' E 002°20'0 0.0
2018-Jan-29 15:57N 51°03' E 002°20'0 0.0
2018-Jan-29 15:24N 51°03' E 002°20'0 0.0
2018-Jan-29 15:00N 51°03' E 002°20'0 0.0
2018-Jan-29 14:30N 51°03' E 002°20'0 0.0
2018-Jan-29 14:00N 51°03' E 002°20'0 0.0
2018-Jan-29 13:30N 51°03' E 002°20'0 0.0
2018-Jan-29 12:39N 51°03' E 002°20'0 0.0
2018-Jan-29 12:21N 51°03' E 002°20'0 0.0
2018-Jan-29 12:00N 51°03' E 002°20'0 0.0
2018-Jan-29 11:27N 51°03' E 002°20'0 0.0
2018-Jan-29 11:00N 51°03' E 002°20'0 0.0
2018-Jan-29 10:21N 51°03' E 002°20'0 0.0
2018-Jan-29 10:00N 51°03' E 002°20'0 0.0
2018-Jan-29 09:27N 51°03' E 002°20'0 0.0
2018-Jan-29 08:57N 51°03' E 002°20'0 0.0
2018-Jan-29 08:27N 51°03' E 002°20'0 0.0
2018-Jan-29 08:00N 51°03' E 002°20'0 0.0
2018-Jan-29 07:30N 51°03' E 002°20'0 0.0
2018-Jan-29 06:51N 51°03' E 002°20'0 0.0
2018-Jan-29 06:26N 51°03' E 002°20'0 0.0
2018-Jan-29 06:00N 51°03' E 002°20'0 0.0
2018-Jan-29 05:30N 51°03' E 002°20'0 0.0
2018-Jan-29 04:56N 51°03' E 002°20'0 0.0
2018-Jan-29 04:30N 51°03' E 002°20'0 0.0
2018-Jan-29 04:00N 51°03' E 002°20'0 0.0
2018-Jan-29 03:30N 51°03' E 002°20'0 0.0
2018-Jan-29 03:00N 51°03' E 002°20'0 0.0
2018-Jan-29 02:30N 51°03' E 002°20'0 0.0
2018-Jan-29 01:59N 51°03' E 002°20'0 0.0
2018-Jan-29 01:29N 51°03' E 002°20'0 0.0
2018-Jan-29 01:00N 51°03' E 002°20'0 0.0
2018-Jan-29 00:30N 51°03' E 002°20'0 0.0
2018-Jan-29 00:00N 51°03' E 002°20'0 0.0
2018-Jan-28 23:30N 51°03' E 002°20'0 0.0
2018-Jan-28 23:00N 51°03' E 002°20'0 0.0
2018-Jan-28 22:11N 51°03' E 002°20'0 0.0
2018-Jan-28 21:57N 51°03' E 002°20'0 0.0
2018-Jan-28 21:03N 51°03' E 002°20'0 0.0
2018-Jan-28 21:00N 51°03' E 002°20'0 0.0
2018-Jan-28 20:30N 51°03' E 002°20'0 0.0
2018-Jan-28 20:00N 51°03' E 002°20'0 0.0
2018-Jan-28 19:29N 51°03' E 002°20'0 0.0
2018-Jan-28 18:57N 51°03' E 002°20'0 0.0
2018-Jan-28 18:27N 51°03' E 002°20'0 0.0
2018-Jan-28 17:57N 51°03' E 002°20'0 0.0
2018-Jan-28 17:26N 51°03' E 002°20'0 0.0
2018-Jan-28 16:59N 51°03' E 002°20'0 0.0
2018-Jan-28 16:26N 51°03' E 002°20'0 0.0
2018-Jan-28 15:44N 51°03' E 002°20'0 0.0
2018-Jan-28 15:30N 51°03' E 002°20'0 0.0
2018-Jan-28 15:00N 51°03' E 002°20'0 0.0
2018-Jan-28 14:30N 51°03' E 002°20'0 0.0
2018-Jan-28 13:18N 51°03' E 002°20'0 0.0
2018-Jan-28 12:50N 51°03' E 002°20'0 0.0
2018-Jan-28 12:30N 51°03' E 002°20'0 0.0
2018-Jan-28 11:59N 51°03' E 002°20'0 0.0
2018-Jan-28 11:30N 51°03' E 002°20'0 0.0
2018-Jan-28 10:56N 51°03' E 002°20'0 0.0
2018-Jan-28 10:23N 51°03' E 002°20'0 0.0
2018-Jan-28 09:59N 51°03' E 002°20'0 0.0
2018-Jan-28 09:23N 51°03' E 002°20'0 0.0
2018-Jan-28 09:00N 51°03' E 002°20'0 0.0
2018-Jan-28 08:27N 51°03' E 002°20'0 0.0
2018-Jan-28 07:56N 51°03' E 002°20'0 0.0
2018-Jan-28 07:27N 51°03' E 002°20'0 0.0
2018-Jan-28 06:56N 51°03' E 002°20'0 0.0
2018-Jan-28 06:29N 51°03' E 002°20'0 0.0
2018-Jan-28 05:17N 51°03' E 002°20'0 0.0
2018-Jan-28 04:56N 51°03' E 002°20'0 0.0
2018-Jan-28 04:29N 51°03' E 002°20'0 0.0
2018-Jan-28 03:59N 51°03' E 002°20'0 0.0
2018-Jan-28 03:30N 51°03' E 002°20'0 0.0
2018-Jan-28 02:59N 51°03' E 002°20'0 0.0
2018-Jan-28 02:21N 51°03' E 002°20'0 0.0
2018-Jan-28 01:59N 51°03' E 002°20'0 0.0
2018-Jan-28 01:29N 51°03' E 002°20'0 0.0
2018-Jan-28 00:59N 51°03' E 002°20'0 0.0
2018-Jan-28 00:26N 51°03' E 002°20'0 0.0
2018-Jan-27 23:56N 51°03' E 002°20'0 0.0
2018-Jan-27 23:26N 51°03' E 002°20'0 0.0
2018-Jan-27 22:56N 51°03' E 002°20'0 0.0
2018-Jan-27 22:26N 51°03' E 002°20'0 0.0
2018-Jan-27 22:00N 51°03' E 002°20'0 0.0
2018-Jan-27 21:27N 51°03' E 002°20'0 0.0
2018-Jan-27 20:56N 51°03' E 002°20'0 0.0
2018-Jan-27 20:26N 51°03' E 002°20'0 0.0
2018-Jan-27 20:00N 51°03' E 002°20'0 0.0
2018-Jan-27 19:20N 51°03' E 002°20'0 0.0
2018-Jan-27 18:59N 51°03' E 002°20'0 0.0
2018-Jan-27 18:11N 51°03' E 002°20'0 0.0
2018-Jan-27 17:59N 51°03' E 002°20'0 0.0
2018-Jan-27 17:29N 51°03' E 002°20'0 0.0
2018-Jan-27 16:56N 51°03' E 002°20'0 0.0
2018-Jan-27 16:29N 51°03' E 002°20'0 0.0
2018-Jan-27 15:57N 51°03' E 002°20'0 0.0
2018-Jan-27 15:30N 51°03' E 002°20'0 0.0
2018-Jan-27 14:59N 51°03' E 002°20'0 0.0
2018-Jan-27 14:29N 51°03' E 002°20'0 0.0
2018-Jan-27 13:59N 51°03' E 002°20'0 0.0
2018-Jan-27 13:29N 51°03' E 002°20'0 0.0
2018-Jan-27 12:59N 51°03' E 002°20'0 0.0
2018-Jan-27 12:29N 51°03' E 002°20'0 0.0
2018-Jan-27 11:56N 51°03' E 002°20'0 0.0
2018-Jan-27 11:29N 51°03' E 002°20'0 0.0
2018-Jan-27 10:57N 51°03' E 002°20'0 0.1
2018-Jan-27 10:30N 51°03' E 002°20'1 1.2
2018-Jan-27 10:00N 51°03' E 002°21'0 0.0
2018-Jan-27 09:30N 51°03' E 002°21'0 0.5
2018-Jan-27 09:01N 51°03' E 002°21'2 3.7
2018-Jan-27 08:29N 51°04' E 002°18'4 9.1
2018-Jan-27 07:59N 51°03' E 002°11'2 4.9
2018-Jan-27 07:30N 51°01' E 002°11'0 0.6
2018-Jan-27 06:51N 51°01' E 002°11'0 0.0
2018-Jan-27 06:24N 51°01' E 002°11'0 0.0
2018-Jan-27 05:57N 51°01' E 002°11'0 0.0
2018-Jan-27 03:36N 51°01' E 002°11'0 0.0
2018-Jan-27 03:30N 51°01' E 002°11'0 0.0
2018-Jan-27 03:00N 51°01' E 002°11'0 0.0
2018-Jan-27 02:24N 51°01' E 002°11'0 0.0
2018-Jan-27 01:30N 51°01' E 002°11'0 0.0
2018-Jan-27 00:57N 51°01' E 002°11'0 0.0
2018-Jan-27 00:30N 51°01' E 002°11'0 0.0
2018-Jan-26 23:51N 51°01' E 002°11'0 0.0
2018-Jan-26 23:27N 51°01' E 002°11'0 0.0
2018-Jan-26 23:00N 51°01' E 002°11'0 0.0
2018-Jan-26 22:21N 51°01' E 002°11'0 0.0
2018-Jan-26 21:39N 51°01' E 002°11'0 0.0
2018-Jan-26 21:27N 51°01' E 002°11'0 0.0
2018-Jan-26 21:00N 51°01' E 002°11'0 0.0
2018-Jan-26 19:45N 51°01' E 002°11'0 0.0
2018-Jan-26 19:27N 51°01' E 002°11'0 0.0
2018-Jan-26 18:36N 51°01' E 002°11'0 0.0
2018-Jan-26 18:30N 51°01' E 002°11'0 0.0
2018-Jan-26 18:00N 51°01' E 002°11'0 0.0
2018-Jan-26 17:18N 51°01' E 002°11'0 0.0
2018-Jan-26 17:00N 51°01' E 002°11'0 0.0
2018-Jan-26 16:30N 51°01' E 002°11'0 0.0
2018-Jan-26 16:00N 51°01' E 002°11'0 0.0
2018-Jan-26 15:27N 51°01' E 002°11'0 0.0
2018-Jan-26 15:00N 51°01' E 002°11'0 0.0
2018-Jan-26 14:21N 51°01' E 002°11'0 0.0
2018-Jan-26 14:00N 51°01' E 002°11'0 0.0
2018-Jan-26 13:30N 51°01' E 002°11'0 0.0
2018-Jan-26 12:57N 51°01' E 002°11'0 0.0
2018-Jan-26 12:24N 51°01' E 002°11'0 0.0
2018-Jan-26 12:00N 51°01' E 002°11'0 0.0
2018-Jan-26 11:30N 51°01' E 002°11'0 0.0
2018-Jan-26 10:57N 51°01' E 002°11'0 0.0
2018-Jan-26 10:30N 51°01' E 002°11'0 0.0
2018-Jan-26 09:51N 51°01' E 002°11'0 0.0
2018-Jan-26 09:12N 51°01' E 002°11'0 0.0
2018-Jan-26 09:00N 51°01' E 002°11'0 0.0
2018-Jan-26 08:30N 51°01' E 002°11'0 0.0
2018-Jan-26 08:00N 51°01' E 002°11'0 0.0
2018-Jan-26 07:30N 51°01' E 002°11'0 0.0
2018-Jan-26 06:51N 51°01' E 002°11'0 0.0
2018-Jan-26 06:30N 51°01' E 002°11'0 0.0
2018-Jan-26 05:33N 51°01' E 002°11'0 0.0
2018-Jan-26 05:30N 51°01' E 002°11'0 0.0
2018-Jan-26 04:51N 51°01' E 002°11'0 0.0
2018-Jan-26 04:18N 51°01' E 002°11'0 0.0
2018-Jan-26 04:00N 51°01' E 002°11'0 0.0
2018-Jan-26 03:30N 51°01' E 002°11'0 0.0
2018-Jan-26 02:48N 51°01' E 002°11'0 0.0
2018-Jan-26 02:24N 51°01' E 002°11'0 0.0
2018-Jan-26 02:00N 51°01' E 002°11'0 0.0
2018-Jan-26 01:27N 51°01' E 002°11'0 0.0
2018-Jan-26 00:57N 51°01' E 002°11'0 0.0
2018-Jan-26 00:27N 51°01' E 002°11'0 0.0
2018-Jan-25 23:51N 51°01' E 002°11'0 0.0
2018-Jan-25 23:30N 51°01' E 002°11'0 0.0
2018-Jan-25 23:00N 51°01' E 002°11'0 0.0
2018-Jan-25 22:09N 51°01' E 002°11'0 0.0
2018-Jan-25 21:45N 51°01' E 002°11'0 0.0
2018-Jan-25 21:21N 51°01' E 002°11'0 0.0
2018-Jan-25 21:00N 51°01' E 002°11'0 0.0
2018-Jan-25 20:11N 51°01' E 002°10'0 0.2
2018-Jan-25 19:59N 51°01' E 002°11'1 2.0
2018-Jan-25 19:29N 51°02' E 002°10'2 5.1
2018-Jan-25 19:00N 51°03' E 002°07'4 7.7
2018-Jan-25 18:30N 51°03' E 002°01'611.8
2018-Jan-25 18:00N 51°03' E 001°52'2 3.7
2018-Jan-25 17:30N 51°03' E 001°49'0 0.9
2018-Jan-25 17:01N 51°03' E 001°48'0 0.1
2018-Jan-25 16:30N 51°03' E 001°48'0 0.1
2018-Jan-25 16:00N 51°03' E 001°48'0 0.1
2018-Jan-25 15:30N 51°03' E 001°48'0 0.1
2018-Jan-25 14:57N 51°03' E 001°48'0 0.6
2018-Jan-25 14:30N 51°03' E 001°48'0 0.2
2018-Jan-25 14:00N 51°03' E 001°48'0 0.0
2018-Jan-25 13:30N 51°03' E 001°48'0 0.0
2018-Jan-25 13:00N 51°03' E 001°48'0 0.0
2018-Jan-25 12:30N 51°03' E 001°48'0 0.1
2018-Jan-25 12:00N 51°03' E 001°48'0 1.0
2018-Jan-25 11:31N 51°03' E 001°47'2 3.7
2018-Jan-25 11:00N 51°02' E 001°44'3 5.1
2018-Jan-25 10:30N 51°01' E 001°40'510.5
2018-Jan-25 10:00N 50°57' E 001°35'611.6
2018-Jan-25 09:30N 50°53' E 001°29'5411.3
2018-Jan-25 04:43N 50°22' E 000°19'312.4
2018-Jan-25 04:30N 50°21' E 000°15'612.7
2018-Jan-25 04:00N 50°20' E 000°05'713.0
2018-Jan-25 03:30N 50°19' W 000°05'713.4
2018-Jan-25 03:00N 50°17' W 000°15'10013.7
2018-Jan-24 19:42N 49°52' W 002°46'211.5
2018-Jan-24 19:30N 49°52' W 002°49'1211.2
2018-Jan-24 18:25N 49°52' W 003°08'511.6
2018-Jan-24 17:58N 49°53' W 003°16'511.6
2018-Jan-24 17:30N 49°54' W 003°24'611.6
2018-Jan-24 17:00N 49°55' W 003°33'611.6
2018-Jan-24 16:30N 49°55' W 003°42'611.6
2018-Jan-24 16:00N 49°57' W 003°51'811.8
2018-Jan-24 15:18N 49°58' W 004°03'511.9
2018-Jan-24 14:55N 49°59' W 004°10'512.0
2018-Jan-24 14:30N 49°60' W 004°18'612.0
2018-Jan-24 14:01N 50°01' W 004°27'612.0
2018-Jan-24 13:30N 50°03' W 004°36'611.9
2018-Jan-24 13:01N 50°03' W 004°45'611.7
2018-Jan-24 12:29N 50°04' W 004°54'4 9.1
2018-Jan-24 12:01N 50°05' W 005°01'1 0.8
2018-Jan-24 11:19N 50°06' W 005°01'0 0.1
2018-Jan-24 10:58N 50°06' W 005°01'0 0.0
2018-Jan-24 10:28N 50°06' W 005°01'0 0.0
2018-Jan-24 09:58N 50°06' W 005°01'0 0.0
2018-Jan-24 09:19N 50°06' W 005°01'0 0.0
2018-Jan-24 08:58N 50°06' W 005°01'0 0.0
2018-Jan-24 08:28N 50°06' W 005°01'0 0.1
2018-Jan-24 07:58N 50°06' W 005°01'0 0.0
2018-Jan-24 07:16N 50°06' W 005°01'0 0.0
2018-Jan-24 06:58N 50°06' W 005°01'0 0.0
2018-Jan-24 06:28N 50°06' W 005°01'0 0.0
2018-Jan-24 05:52N 50°06' W 005°01'0 0.0
2018-Jan-24 05:25N 50°06' W 005°01'0 0.0
2018-Jan-24 04:46N 50°06' W 005°01'0 0.0
2018-Jan-24 04:28N 50°06' W 005°01'0 0.0
2018-Jan-24 03:58N 50°06' W 005°01'0 0.0
2018-Jan-24 03:28N 50°06' W 005°01'0 0.0
2018-Jan-24 02:58N 50°06' W 005°01'0 0.0
2018-Jan-24 02:22N 50°06' W 005°01'0 0.0
2018-Jan-24 01:58N 50°06' W 005°01'0 0.0
2018-Jan-24 01:28N 50°06' W 005°01'0 0.0
2018-Jan-24 00:55N 50°06' W 005°01'0 0.0
2018-Jan-24 00:28N 50°06' W 005°01'0 0.0
2018-Jan-23 23:58N 50°06' W 005°01'0 0.0
2018-Jan-23 23:28N 50°06' W 005°01'0 0.0
2018-Jan-23 22:46N 50°06' W 005°01'0 0.0
2018-Jan-23 22:28N 50°06' W 005°01'0 0.0
2018-Jan-23 21:58N 50°06' W 005°01'0 0.0
2018-Jan-23 21:28N 50°06' W 005°01'0 0.0
2018-Jan-23 20:58N 50°06' W 005°01'0 0.0
2018-Jan-23 20:28N 50°06' W 005°01'0 0.0
2018-Jan-23 19:58N 50°06' W 005°01'0 0.0
2018-Jan-23 19:28N 50°06' W 005°01'0 0.0
2018-Jan-23 18:58N 50°06' W 005°01'0 0.0
2018-Jan-23 18:28N 50°06' W 005°01'0 0.0
2018-Jan-23 17:58N 50°06' W 005°01'0 0.0
2018-Jan-23 17:25N 50°06' W 005°01'0 0.0
2018-Jan-23 08:46N 50°06' W 005°01'0 0.0
2018-Jan-23 08:28N 50°06' W 005°01'0 0.0
2018-Jan-23 07:58N 50°06' W 005°01'0 0.0
2018-Jan-23 07:25N 50°06' W 005°01'0 0.0
2018-Jan-23 06:52N 50°06' W 005°01'0 0.0
2018-Jan-23 06:25N 50°06' W 005°01'0 0.0
2018-Jan-23 05:58N 50°06' W 005°01'0 0.0
2018-Jan-23 05:22N 50°06' W 005°01'0 0.0
2018-Jan-23 04:58N 50°06' W 005°01'0 0.3
2018-Jan-23 04:28N 50°06' W 005°01'0 0.5
2018-Jan-23 04:00N 50°06' W 005°01'1 1.8
2018-Jan-23 03:30N 50°05' W 005°01'2 4.4
2018-Jan-23 03:00N 50°03' W 005°01'4 7.8
2018-Jan-23 02:30N 49°59' W 005°02'3111.9
2018-Jan-22 23:53N 49°32' W 005°26'  

Dump ship's entire track history